OscarGallego90

Members
  • Content Count

    2
  • Joined

  • Last visited

Community Reputation

0 Neutral

About OscarGallego90

  • Birthday 05/08/1990

Profile Information

  • Gender
    Male
  • Location
    Spain
  • Interests
    FSX

Flight Sim Profile

  • Commercial Member
    No
  • Online Flight Organization Membership
    IVAO
  • Virtual Airlines
    Yes

Single Status Update

See all updates by OscarGallego90

  1. Aprendiendo a interpretar los metar. Uno facil: LEMG 202330Z 28020KT CAVOK 14/M03 Q1028 NOSIG